createdAt,value
2022-11-02T00:01:09.464Z,6.40
2022-11-02T00:03:37.317Z,5.73
2022-11-02T00:06:05.345Z,5.93
2022-11-02T00:08:33.143Z,5.63
2022-11-02T00:11:00.913Z,5.83
2022-11-02T00:13:30.044Z,5.73
2022-11-02T00:15:58.130Z,6.53
2022-11-02T00:18:25.957Z,5.53
2022-11-02T00:20:53.813Z,4.77
2022-11-02T00:23:21.599Z,4.53
2022-11-02T00:25:51.460Z,4.60
2022-11-02T00:28:19.586Z,4.10
2022-11-02T00:30:48.764Z,5.03
2022-11-02T00:33:16.547Z,5.27
2022-11-02T00:35:45.820Z,4.93
2022-11-02T00:38:13.848Z,6.03
2022-11-02T00:40:41.603Z,5.20
2022-11-02T00:43:09.357Z,7.03
2022-11-02T00:45:37.171Z,8.60
2022-11-02T00:48:07.223Z,3.47
2022-11-02T00:50:35.222Z,6.90
2022-11-02T00:53:04.233Z,6.37
2022-11-02T00:55:32.227Z,6.93
2022-11-02T00:58:04.294Z,7.57
2022-11-02T01:00:32.321Z,6.17
2022-11-02T01:03:01.351Z,7.43
2022-11-02T01:05:31.044Z,8.47
2022-11-02T01:07:58.790Z,9.90
2022-11-02T01:10:27.536Z,7.03
2022-11-02T01:12:55.294Z,5.37
2022-11-02T01:15:23.135Z,6.07
2022-11-02T01:17:50.936Z,7.53
2022-11-02T01:20:18.906Z,6.30
2022-11-02T01:22:48.405Z,8.03
2022-11-02T01:25:16.222Z,6.70
2022-11-02T01:27:43.926Z,4.73
2022-11-02T01:30:13.673Z,4.83
2022-11-02T01:32:41.508Z,6.03
2022-11-02T01:35:10.322Z,6.33
2022-11-02T01:37:39.653Z,4.97
2022-11-02T01:40:12.200Z,4.93
2022-11-02T01:42:39.969Z,5.00
2022-11-02T01:45:08.615Z,5.40
2022-11-02T01:47:39.626Z,3.87
2022-11-02T01:50:12.547Z,6.67
2022-11-02T01:52:41.376Z,5.23
2022-11-02T01:55:16.439Z,3.83
2022-11-02T01:57:47.719Z,4.60
2022-11-02T02:00:17.749Z,4.17
2022-11-02T02:02:51.558Z,5.33
2022-11-02T02:05:23.101Z,3.60
2022-11-02T02:07:53.123Z,5.80
2022-11-02T02:10:22.278Z,4.80
2022-11-02T02:12:50.861Z,4.13
2022-11-02T02:15:22.952Z,4.73
2022-11-02T02:17:58.778Z,7.10
2022-11-02T02:20:43.108Z,5.07
2022-11-02T02:23:44.010Z,5.03
2022-11-02T02:26:43.082Z,3.73
2022-11-02T02:29:20.577Z,2.63
2022-11-02T02:31:54.114Z,4.50
2022-11-02T02:34:27.277Z,3.67
2022-11-02T02:37:01.668Z,4.90
2022-11-02T02:39:42.166Z,4.33
2022-11-02T02:42:19.544Z,4.30
2022-11-02T02:44:59.583Z,4.03
2022-11-02T02:47:32.103Z,4.20
2022-11-02T02:50:06.811Z,4.17
2022-11-02T02:52:38.621Z,3.37
2022-11-02T02:55:08.057Z,3.20
2022-11-02T02:57:37.357Z,4.63
2022-11-02T03:00:14.330Z,5.17
2022-11-02T03:02:44.724Z,4.37
2022-11-02T03:05:26.094Z,5.20
2022-11-02T03:07:55.601Z,4.90
2022-11-02T03:10:32.215Z,10.03
2022-11-02T03:13:11.183Z,4.50
2022-11-02T03:15:43.606Z,5.20
2022-11-02T03:18:19.325Z,5.00
2022-11-02T03:20:58.405Z,6.97
2022-11-02T03:23:33.997Z,6.17
2022-11-02T03:26:08.180Z,5.77
2022-11-02T03:28:52.322Z,5.87
2022-11-02T03:31:29.432Z,6.57
2022-11-02T03:34:03.519Z,6.20
2022-11-02T03:36:36.219Z,5.13
2022-11-02T03:39:09.132Z,5.90
2022-11-02T03:41:42.013Z,9.03
2022-11-02T03:44:16.085Z,5.47
2022-11-02T03:46:46.173Z,5.20
2022-11-02T03:49:20.466Z,6.13
2022-11-02T03:51:51.400Z,5.97
2022-11-02T03:54:28.292Z,6.87
2022-11-02T03:57:00.654Z,8.07
2022-11-02T03:59:31.689Z,4.77
2022-11-02T04:02:02.971Z,6.93
2022-11-02T04:04:31.999Z,6.83
2022-11-02T04:06:59.797Z,7.27
2022-11-02T04:09:27.668Z,6.57
2022-11-02T04:12:13.686Z,6.07
2022-11-02T04:14:41.607Z,5.57
2022-11-02T04:17:34.873Z,6.40
2022-11-02T04:20:07.316Z,5.60
2022-11-02T04:22:53.154Z,5.80
2022-11-02T04:25:21.603Z,8.93
2022-11-02T04:28:15.463Z,6.37
2022-11-02T04:30:50.210Z,5.93
2022-11-02T04:33:36.140Z,8.47
2022-11-02T04:36:08.987Z,5.67
2022-11-02T04:38:40.398Z,6.97
2022-11-02T04:41:31.032Z,7.70
2022-11-02T04:43:59.863Z,8.17
2022-11-02T04:46:29.919Z,7.20
2022-11-02T04:48:59.851Z,6.03
2022-11-02T04:51:30.397Z,8.20
2022-11-02T04:53:59.792Z,4.97
2022-11-02T04:56:29.410Z,8.43
2022-11-02T04:58:59.585Z,7.43
2022-11-02T05:01:30.546Z,6.27
2022-11-02T05:04:02.243Z,8.40
2022-11-02T05:06:32.644Z,6.50
2022-11-02T05:09:00.962Z,5.37
2022-11-02T05:11:29.658Z,6.30
2022-11-02T05:13:58.354Z,7.10
2022-11-02T05:16:26.239Z,7.80
2022-11-02T05:18:55.458Z,6.50
2022-11-02T05:21:26.100Z,7.43
2022-11-02T05:23:55.927Z,7.97
2022-11-02T05:26:24.502Z,7.63
2022-11-02T05:28:52.661Z,6.20
2022-11-02T05:31:21.495Z,5.50
2022-11-02T05:33:50.747Z,8.07
2022-11-02T05:36:21.824Z,4.70
2022-11-02T05:38:55.374Z,5.23
2022-11-02T05:41:24.987Z,7.60
2022-11-02T05:43:56.230Z,5.77
2022-11-02T05:46:25.958Z,6.63
2022-11-02T05:48:53.749Z,8.93
2022-11-02T05:51:21.556Z,6.53
2022-11-02T05:53:49.372Z,10.00
2022-11-02T05:56:24.654Z,7.27
2022-11-02T05:58:54.559Z,7.13
2022-11-02T06:01:22.562Z,8.63
2022-11-02T06:03:53.403Z,9.03
2022-11-02T06:06:21.898Z,6.03
2022-11-02T06:08:49.851Z,8.37
2022-11-02T06:11:19.033Z,6.93
2022-11-02T06:13:50.379Z,8.07
2022-11-02T06:16:43.979Z,6.83
2022-11-02T06:19:22.027Z,7.73
2022-11-02T06:21:49.919Z,7.23
2022-11-02T06:24:17.723Z,6.90
2022-11-02T06:26:47.006Z,7.73
2022-11-02T06:29:15.005Z,5.73
2022-11-02T06:31:42.826Z,7.63
2022-11-02T06:34:10.580Z,6.90
2022-11-02T06:36:38.317Z,8.47
2022-11-02T06:39:06.170Z,7.57
2022-11-02T06:41:33.944Z,8.70
2022-11-02T06:44:03.095Z,10.23
2022-11-02T06:46:30.870Z,10.60
2022-11-02T06:48:58.922Z,8.63
2022-11-02T06:51:26.697Z,6.10
2022-11-02T06:53:54.456Z,7.50
2022-11-02T06:56:22.275Z,7.33
2022-11-02T06:58:51.021Z,7.47
2022-11-02T07:01:20.297Z,6.97
2022-11-02T07:03:48.164Z,10.30
2022-11-02T07:06:15.922Z,8.53
2022-11-02T07:08:43.801Z,7.70
2022-11-02T07:11:15.412Z,6.97
2022-11-02T07:13:43.374Z,6.67
2022-11-02T07:16:11.293Z,6.57
2022-11-02T07:18:42.358Z,11.90
2022-11-02T07:21:11.454Z,5.63
2022-11-02T07:23:39.383Z,8.83
2022-11-02T07:26:07.124Z,7.47
2022-11-02T07:28:36.808Z,6.93
2022-11-02T07:31:04.647Z,5.37
2022-11-02T07:33:32.475Z,5.30
2022-11-02T07:36:03.995Z,4.97
2022-11-02T07:38:31.825Z,7.53
2022-11-02T07:40:59.595Z,10.17
2022-11-02T07:43:27.542Z,6.83
2022-11-02T07:46:02.889Z,7.20
2022-11-02T07:48:31.878Z,6.37
2022-11-02T07:51:01.016Z,7.33
2022-11-02T07:53:28.777Z,9.20
2022-11-02T07:55:56.602Z,6.43
2022-11-02T07:58:24.404Z,7.57
2022-11-02T08:00:55.835Z,6.23
2022-11-02T08:03:27.357Z,4.37
2022-11-02T08:05:55.773Z,7.20
2022-11-02T08:08:25.668Z,6.70
2022-11-02T08:10:54.680Z,4.50
2022-11-02T08:13:23.833Z,6.10
2022-11-02T08:15:52.426Z,6.20
2022-11-02T08:18:21.867Z,4.63
2022-11-02T08:20:50.029Z,5.70
2022-11-02T08:23:20.782Z,6.60
2022-11-02T08:25:51.767Z,6.57
2022-11-02T08:28:21.499Z,6.03
2022-11-02T08:30:49.306Z,10.20
2022-11-02T08:33:18.872Z,5.00
2022-11-02T08:35:48.013Z,3.87
2022-11-02T08:38:15.984Z,9.37
2022-11-02T08:40:44.818Z,6.27
2022-11-02T08:43:15.577Z,3.73
2022-11-02T08:48:33.677Z,3.97
2022-11-02T08:51:01.466Z,4.60
2022-11-02T08:53:30.517Z,7.23
2022-11-02T08:55:59.450Z,3.93
2022-11-02T08:58:28.581Z,4.47
2022-11-02T09:00:57.567Z,3.00
2022-11-02T09:03:27.209Z,4.00
2022-11-02T09:05:59.491Z,4.27
2022-11-02T09:08:28.513Z,5.73
2022-11-02T09:11:00.326Z,4.30
2022-11-02T09:13:29.958Z,7.77
2022-11-02T09:15:59.257Z,5.27
2022-11-02T09:18:27.318Z,4.27
2022-11-02T09:20:55.202Z,5.13
2022-11-02T09:23:23.607Z,3.43
2022-11-02T09:25:51.403Z,7.90
2022-11-02T09:28:19.178Z,5.97
2022-11-02T09:30:48.425Z,3.80
2022-11-02T09:33:16.309Z,3.87
2022-11-02T09:35:45.979Z,7.73
2022-11-02T09:38:14.086Z,4.53
2022-11-02T09:40:44.499Z,6.30
2022-11-02T09:43:21.359Z,3.77
2022-11-02T09:45:58.336Z,3.83
2022-11-02T09:48:31.824Z,3.50
2022-11-02T09:51:06.197Z,5.73
2022-11-02T09:53:59.930Z,4.10
2022-11-02T09:56:28.446Z,8.33
2022-11-02T09:59:00.596Z,5.10
2022-11-02T10:01:38.904Z,6.03
2022-11-02T10:04:21.982Z,5.50
2022-11-02T10:06:57.543Z,5.60
2022-11-02T10:09:36.258Z,6.20
2022-11-02T10:12:13.500Z,4.40
2022-11-02T10:14:47.538Z,4.93
2022-11-02T10:17:21.532Z,4.53
2022-11-02T10:19:56.060Z,4.50
2022-11-02T10:22:27.030Z,5.50
2022-11-02T10:24:57.615Z,4.50
2022-11-02T10:27:27.796Z,4.87
2022-11-02T10:30:00.825Z,4.97
2022-11-02T10:32:32.457Z,8.57
2022-11-02T10:35:17.914Z,8.10
2022-11-02T10:38:04.356Z,7.00
2022-11-02T10:40:52.807Z,6.83
2022-11-02T10:43:33.101Z,2.97
2022-11-02T10:46:13.462Z,5.33
2022-11-02T10:48:53.319Z,7.33
2022-11-02T10:51:21.994Z,6.23
2022-11-02T10:53:51.879Z,6.67
2022-11-02T10:56:22.099Z,6.20
2022-11-02T10:59:00.167Z,3.53
2022-11-02T11:01:29.228Z,3.80
2022-11-02T11:04:01.125Z,4.93
2022-11-02T11:06:31.891Z,5.03
2022-11-02T11:09:01.657Z,5.93
2022-11-02T11:11:31.818Z,4.80
2022-11-02T11:16:55.425Z,5.20
2022-11-02T11:22:26.025Z,5.60
2022-11-02T11:24:54.198Z,3.97
2022-11-02T11:27:22.940Z,4.57
2022-11-02T11:29:55.693Z,5.33
2022-11-02T11:32:30.155Z,3.40
2022-11-02T11:35:03.722Z,5.30
2022-11-02T11:37:31.886Z,4.93
2022-11-02T11:40:03.990Z,3.17
2022-11-02T11:42:36.540Z,3.80
2022-11-02T11:45:06.942Z,4.27
2022-11-02T11:47:38.435Z,4.37
2022-11-02T11:50:18.992Z,4.90
2022-11-02T11:53:11.037Z,4.87
2022-11-02T11:55:49.028Z,6.80
2022-11-02T11:58:21.092Z,8.73
2022-11-02T12:01:10.244Z,5.37
2022-11-02T12:03:52.329Z,3.70
2022-11-02T12:06:28.671Z,4.17
2022-11-02T12:09:04.888Z,4.13
2022-11-02T12:11:46.833Z,5.40
2022-11-02T12:14:27.413Z,3.87
2022-11-02T12:17:14.961Z,5.90
2022-11-02T12:19:59.314Z,5.40
2022-11-02T12:22:39.279Z,5.97
2022-11-02T12:25:26.595Z,5.93
2022-11-02T12:28:00.613Z,6.70
2022-11-02T12:30:37.009Z,5.30
2022-11-02T12:33:23.467Z,6.57
2022-11-02T12:36:21.921Z,4.90
2022-11-02T12:39:02.120Z,4.53
2022-11-02T12:41:45.414Z,2.90
2022-11-02T12:44:30.335Z,6.63
2022-11-02T12:47:06.999Z,4.90
2022-11-02T12:49:42.615Z,5.50
2022-11-02T12:52:24.412Z,4.97
2022-11-02T12:55:04.696Z,4.20
2022-11-02T12:57:37.174Z,6.23
2022-11-02T13:00:09.032Z,4.03
2022-11-02T13:02:50.946Z,4.67
2022-11-02T13:05:22.323Z,6.27
2022-11-02T13:07:59.639Z,4.93
2022-11-02T13:10:34.112Z,5.73
2022-11-02T13:13:05.314Z,5.90
2022-11-02T13:15:36.648Z,3.97
2022-11-02T13:18:11.468Z,4.40
2022-11-02T13:20:45.537Z,6.50
2022-11-02T13:23:23.233Z,6.03
2022-11-02T13:25:58.659Z,3.63
2022-11-02T13:28:34.899Z,6.13
2022-11-02T13:31:11.731Z,5.77
2022-11-02T13:33:47.687Z,5.37
2022-11-02T13:36:16.196Z,8.80
2022-11-02T13:38:48.275Z,6.00
2022-11-02T13:41:42.843Z,4.07
2022-11-02T13:44:45.626Z,5.63
2022-11-02T13:47:30.235Z,4.80
2022-11-02T13:49:59.951Z,8.53
2022-11-02T13:52:38.174Z,5.67
2022-11-02T13:55:09.238Z,7.03
2022-11-02T13:57:42.616Z,6.53
2022-11-02T14:00:30.744Z,4.67
2022-11-02T14:03:08.179Z,5.17
2022-11-02T14:05:44.453Z,6.90
2022-11-02T14:08:20.809Z,4.70
2022-11-02T14:11:03.881Z,5.70
2022-11-02T14:14:17.202Z,7.97
2022-11-02T14:16:47.051Z,5.37
2022-11-02T14:19:22.980Z,3.43
2022-11-02T14:22:11.144Z,6.30
2022-11-02T14:25:14.346Z,5.87
2022-11-02T14:27:42.189Z,2.83
2022-11-02T14:30:45.173Z,5.30
2022-11-02T14:33:54.482Z,3.70
2022-11-02T14:36:39.185Z,4.43
2022-11-02T14:39:18.576Z,3.97
2022-11-02T14:42:21.640Z,3.87
2022-11-02T14:45:07.494Z,5.03
2022-11-02T14:47:39.634Z,4.80
2022-11-02T14:50:14.207Z,4.53
2022-11-02T14:52:53.640Z,3.43
2022-11-02T14:55:26.065Z,4.33
2022-11-02T14:57:58.544Z,4.83
2022-11-02T15:00:33.801Z,5.47
2022-11-02T15:03:05.817Z,5.40
2022-11-02T15:05:37.490Z,5.33
2022-11-02T15:08:08.463Z,5.03
2022-11-02T15:10:45.382Z,5.90
2022-11-02T15:13:49.005Z,5.37
2022-11-02T15:16:22.747Z,7.97
2022-11-02T15:18:52.242Z,5.53
2022-11-02T15:21:27.527Z,5.40
2022-11-02T15:24:01.448Z,6.20
2022-11-02T15:26:41.643Z,7.80
2022-11-02T15:29:19.542Z,5.53
2022-11-02T15:31:53.955Z,4.57
2022-11-02T15:34:31.367Z,5.20
2022-11-02T15:37:01.347Z,4.27
2022-11-02T15:39:29.501Z,4.40
2022-11-02T15:42:03.572Z,4.47
2022-11-02T15:44:57.978Z,3.73
2022-11-02T15:47:36.542Z,5.00
2022-11-02T15:50:17.700Z,6.23
2022-11-02T15:53:22.252Z,10.27
2022-11-02T15:56:01.326Z,6.03
2022-11-02T15:58:40.470Z,6.90
2022-11-02T16:01:18.618Z,11.37
2022-11-02T16:03:48.788Z,7.77
2022-11-02T16:06:26.325Z,6.83
2022-11-02T16:08:54.646Z,4.03
2022-11-02T16:11:22.739Z,8.60
2022-11-02T16:14:08.618Z,5.77
2022-11-02T16:16:48.108Z,10.53
2022-11-02T16:19:20.967Z,9.20
2022-11-02T16:21:51.105Z,7.60
2022-11-02T16:24:20.311Z,6.83
2022-11-02T16:26:49.550Z,6.50
2022-11-02T16:29:32.251Z,5.90
2022-11-02T16:32:00.025Z,5.40
2022-11-02T16:34:30.928Z,9.50
2022-11-02T16:37:10.075Z,7.93
2022-11-02T16:39:42.151Z,6.20
2022-11-02T16:42:17.477Z,9.53
2022-11-02T16:44:55.933Z,10.00
2022-11-02T16:47:35.552Z,7.10
2022-11-02T16:50:05.730Z,5.53
2022-11-02T16:52:37.612Z,5.57
2022-11-02T16:55:35.700Z,5.90
2022-11-02T16:58:04.502Z,5.80
2022-11-02T17:00:32.770Z,6.60
2022-11-02T17:03:08.612Z,4.43
2022-11-02T17:05:40.948Z,12.27
2022-11-02T17:08:23.495Z,17.87
2022-11-02T17:10:56.634Z,5.83
2022-11-02T17:13:26.931Z,5.47
2022-11-02T17:15:56.882Z,12.30
2022-11-02T17:18:29.680Z,10.63
2022-11-02T17:21:26.812Z,8.53
2022-11-02T17:23:57.349Z,6.97
2022-11-02T17:26:44.581Z,7.80
2022-11-02T17:29:32.053Z,11.83
2022-11-02T17:32:01.454Z,9.83
2022-11-02T17:34:30.701Z,8.97
2022-11-02T17:36:58.641Z,9.83
2022-11-02T17:39:27.776Z,11.20
2022-11-02T17:42:14.724Z,10.53
2022-11-02T17:44:45.229Z,10.80
2022-11-02T17:47:14.902Z,8.10
2022-11-02T17:49:42.716Z,12.63
2022-11-02T17:52:13.561Z,9.13
2022-11-02T17:54:42.829Z,9.33
2022-11-02T17:57:13.866Z,8.50
2022-11-02T17:59:41.620Z,10.33
2022-11-02T18:02:13.964Z,9.23
2022-11-02T18:07:14.607Z,9.60
2022-11-02T18:09:43.785Z,13.50
2022-11-02T18:12:13.565Z,10.57
2022-11-02T18:14:41.679Z,12.33
2022-11-02T18:17:09.834Z,10.17
2022-11-02T18:19:37.631Z,8.83
2022-11-02T18:22:05.368Z,9.90
2022-11-02T18:24:33.237Z,9.20
2022-11-02T18:27:02.325Z,10.03
2022-11-02T18:29:30.103Z,11.10
2022-11-02T18:31:57.843Z,12.97
2022-11-02T18:34:25.745Z,10.67
2022-11-02T18:36:53.509Z,8.63
2022-11-02T18:39:21.299Z,12.50
2022-11-02T18:41:49.153Z,12.23
2022-11-02T18:44:18.251Z,14.30
2022-11-02T18:46:46.021Z,13.27
2022-11-02T18:49:14.507Z,12.60
2022-11-02T18:51:43.571Z,15.93
2022-11-02T18:54:11.948Z,11.37
2022-11-02T18:56:39.787Z,12.03
2022-11-02T18:59:07.645Z,13.00
2022-11-02T19:01:37.251Z,11.37
2022-11-02T19:04:05.345Z,11.10
2022-11-02T19:06:51.619Z,8.00
2022-11-02T19:09:22.917Z,10.43
2022-11-02T19:11:54.359Z,9.97
2022-11-02T19:14:23.772Z,12.73
2022-11-02T19:16:53.029Z,8.40
2022-11-02T19:19:20.806Z,11.03
2022-11-02T19:21:48.712Z,13.87
2022-11-02T19:24:16.548Z,10.70
2022-11-02T19:26:44.306Z,23.73
2022-11-02T19:29:12.407Z,14.20
2022-11-02T19:31:40.831Z,14.27
2022-11-02T19:34:10.603Z,11.83
2022-11-02T19:36:38.696Z,10.13
2022-11-02T19:39:09.101Z,15.00
2022-11-02T19:41:39.635Z,10.60
2022-11-02T19:44:07.898Z,8.70
2022-11-02T19:46:36.072Z,11.93
2022-11-02T19:49:03.910Z,11.07
2022-11-02T19:51:33.248Z,11.87
2022-11-02T19:54:03.290Z,14.50
2022-11-02T19:56:34.992Z,9.53
2022-11-02T19:59:03.277Z,11.87
2022-11-02T20:01:33.350Z,11.07
2022-11-02T20:04:01.531Z,7.83
2022-11-02T20:06:33.243Z,10.23
2022-11-02T20:09:04.276Z,7.37
2022-11-02T20:11:32.868Z,13.07
2022-11-02T20:14:02.368Z,9.67
2022-11-02T20:16:30.463Z,11.17
2022-11-02T20:18:58.999Z,9.53
2022-11-02T20:21:33.323Z,8.73
2022-11-02T20:24:03.678Z,10.17
2022-11-02T20:26:33.769Z,7.57
2022-11-02T20:29:03.054Z,10.50
2022-11-02T20:31:32.702Z,8.20
2022-11-02T20:34:01.437Z,12.93
2022-11-02T20:36:29.911Z,12.10
2022-11-02T20:38:58.011Z,12.50
2022-11-02T20:41:27.627Z,9.67
2022-11-02T20:43:55.937Z,9.97
2022-11-02T20:46:42.275Z,9.77
2022-11-02T20:49:21.720Z,11.67
2022-11-02T20:51:57.136Z,11.67
2022-11-02T20:54:26.160Z,8.27
2022-11-02T20:56:55.265Z,7.80
2022-11-02T20:59:23.108Z,8.43
2022-11-02T21:01:50.906Z,8.57
2022-11-02T21:04:21.304Z,11.47
2022-11-02T21:06:49.633Z,12.27
2022-11-02T21:09:17.423Z,10.50
2022-11-02T21:12:02.738Z,9.47
2022-11-02T21:14:32.000Z,8.63
2022-11-02T21:16:59.906Z,12.90
2022-11-02T21:19:27.700Z,8.20
2022-11-02T21:21:59.632Z,9.70
2022-11-02T21:24:28.428Z,6.70
2022-11-02T21:26:56.454Z,10.33
2022-11-02T21:29:24.378Z,8.03
2022-11-02T21:31:53.535Z,7.27
2022-11-02T21:34:21.410Z,8.97
2022-11-02T21:36:49.362Z,8.13
2022-11-02T21:39:17.215Z,7.80
2022-11-02T21:41:45.143Z,10.00
2022-11-02T21:44:12.955Z,7.70
2022-11-02T21:46:40.765Z,10.93
2022-11-02T21:49:10.231Z,9.80
2022-11-02T21:51:38.568Z,9.27
2022-11-02T21:54:06.700Z,8.43
2022-11-02T21:56:35.943Z,8.17
2022-11-02T21:59:05.318Z,8.80
2022-11-02T22:01:46.865Z,6.93
2022-11-02T22:04:21.416Z,8.90
2022-11-02T22:06:49.291Z,6.80
2022-11-02T22:09:17.127Z,9.53
2022-11-02T22:11:45.263Z,5.77
2022-11-02T22:14:13.537Z,5.43
2022-11-02T22:16:43.489Z,9.30
2022-11-02T22:19:13.501Z,7.57
2022-11-02T22:21:54.447Z,7.70
2022-11-02T22:24:22.327Z,8.13
2022-11-02T22:26:51.394Z,9.40
2022-11-02T22:29:19.659Z,5.70
2022-11-02T22:31:48.012Z,9.00
2022-11-02T22:34:16.701Z,7.27
2022-11-02T22:36:46.594Z,8.07
2022-11-02T22:39:14.172Z,6.90
2022-11-02T22:41:43.216Z,6.07
2022-11-02T22:44:12.821Z,7.23
2022-11-02T22:46:42.369Z,9.70
2022-11-02T22:49:11.909Z,8.33
2022-11-02T22:51:41.512Z,6.77
2022-11-02T22:54:13.666Z,7.10
2022-11-02T22:56:42.191Z,6.83
2022-11-02T22:59:10.523Z,7.63
2022-11-02T23:01:39.312Z,5.50
2022-11-02T23:04:08.102Z,7.73
2022-11-02T23:06:36.305Z,5.83
2022-11-02T23:09:04.981Z,5.77
2022-11-02T23:11:36.619Z,6.83
2022-11-02T23:14:06.541Z,7.23
2022-11-02T23:16:36.986Z,7.33
2022-11-02T23:19:28.624Z,7.83
2022-11-02T23:22:18.525Z,8.77
2022-11-02T23:25:05.592Z,6.83
2022-11-02T23:27:58.433Z,5.43
2022-11-02T23:30:45.430Z,8.17
2022-11-02T23:33:13.640Z,8.57
2022-11-02T23:36:04.930Z,6.27
2022-11-02T23:38:46.901Z,7.33
2022-11-02T23:41:15.098Z,6.93
2022-11-02T23:43:44.273Z,7.73
2022-11-02T23:46:12.597Z,6.90
2022-11-02T23:48:42.444Z,8.33
2022-11-02T23:51:28.084Z,7.63
2022-11-02T23:54:13.872Z,5.83
2022-11-02T23:56:44.643Z,5.53
2022-11-02T23:59:14.630Z,6.83
